Time;durP1;ratioP1;P1;durP2;ratioP2;P2;SDS_P1;SDS_P2;PMS_P1;PMS_P2;Temp;Humidity;BMP_temperature;BMP_pressure;BME280_temperature;BME280_humidity;BME280_pressure;Samples;Min_cycle;Max_cycle;Signal;HPM_P1;HPM_P2
2021/10/02 00:31:24;;;;;;;20.95;9.63;;;;;;;12.06;100.00;101208.03;4943289;28;20121;-68
2021/10/02 00:37:11;;;;;;;19.38;8.18;;;;;;;12.02;100.00;101221.53;4884355;29;20688;-68
2021/10/02 00:45:08;;;;;;;17.50;8.25;;;;;;;12.05;100.00;101230.34;4944679;28;20672;-68
2021/10/02 00:47:59;;;;;;;19.75;8.40;;;;;;;12.06;100.00;101239.25;4943832;28;20675;-68
2021/10/02 00:50:28;;;;;;;14.95;7.95;;;;;;;12.07;100.00;101233.88;4940167;28;20061;-68
2021/10/02 00:52:56;;;;;;;19.60;7.82;;;;;;;12.12;100.00;101231.00;4944143;28;20050;-68
2021/10/02 00:55:23;;;;;;;15.48;7.65;;;;;;;12.12;100.00;101231.00;4943568;28;20054;-68
2021/10/02 00:57:53;;;;;;;20.23;8.60;;;;;;;12.11;100.00;101222.13;4943581;28;20077;-68
2021/10/02 01:00:21;;;;;;;17.05;8.60;;;;;;;12.08;100.00;101221.34;4943209;28;20047;-66
2021/10/02 01:02:54;;;;;;;17.33;8.45;;;;;;;12.07;100.00;101227.63;4947799;28;20066;-66
2021/10/02 01:05:51;;;;;;;15.40;8.10;;;;;;;12.01;100.00;101239.41;4943541;28;20061;-66
2021/10/02 01:08:32;;;;;;;17.58;8.43;;;;;;;12.00;100.00;101239.44;4944775;28;20054;-66
2021/10/02 01:11:17;;;;;;;16.70;8.60;;;;;;;11.95;100.00;101229.78;4942680;28;20050;-66
2021/10/02 01:13:55;;;;;;;17.63;8.93;;;;;;;11.94;100.00;101228.00;4946233;28;20502;-67
2021/10/02 01:16:29;;;;;;;16.98;7.65;;;;;;;11.89;100.00;101223.72;4944893;28;20061;-67
2021/10/02 01:19:10;;;;;;;18.58;8.18;;;;;;;11.86;100.00;101227.34;4944946;28;20039;-67
2021/10/02 01:21:56;;;;;;;14.82;8.00;;;;;;;11.80;100.00;101216.84;4938573;28;20122;-68
2021/10/02 01:24:36;;;;;;;16.63;7.55;;;;;;;11.74;100.00;101217.91;4946399;28;20158;-67
2021/10/02 01:27:47;;;;;;;22.40;8.32;;;;;;;11.75;100.00;101216.13;4944178;28;20138;-67
2021/10/02 01:30:21;;;;;;;17.70;8.82;;;;;;;11.71;100.00;101207.31;4912350;28;20059;-67
2021/10/02 01:33:24;;;;;;;19.23;9.00;;;;;;;11.71;100.00;101214.44;4947392;28;20257;-67
2021/10/02 01:36:01;;;;;;;21.73;9.80;;;;;;;11.66;100.00;101203.88;4945145;28;20650;-67
2021/10/02 01:47:14;;;;;;;15.02;8.43;;;;;;;11.37;100.00;101194.09;4941153;28;20197;-67
2021/10/02 01:49:45;;;;;;;19.13;9.40;;;;;;;11.26;100.00;101191.75;4947955;28;20101;-68
2021/10/02 01:52:15;;;;;;;15.63;8.23;;;;;;;11.18;100.00;101194.63;4942347;28;20391;-68
2021/10/02 01:54:45;;;;;;;15.43;8.25;;;;;;;11.10;100.00;101182.41;4944885;28;20138;-68
2021/10/02 01:57:14;;;;;;;17.42;9.25;;;;;;;11.03;100.00;101190.63;4947009;28;20600;-68
2021/10/02 02:00:10;;;;;;;19.43;9.17;;;;;;;10.96;100.00;101185.47;4946154;28;20062;-68
2021/10/02 02:02:43;;;;;;;17.67;8.80;;;;;;;10.87;100.00;101191.09;4945059;28;20364;-68
2021/10/02 02:05:12;;;;;;;16.75;7.88;;;;;;;10.79;100.00;101191.28;4943521;28;20178;-68
2021/10/02 02:07:45;;;;;;;16.98;8.18;;;;;;;10.73;100.00;101186.13;4948999;28;20059;-68
2021/10/02 02:10:13;;;;;;;19.67;8.13;;;;;;;10.68;100.00;101186.25;4946208;28;20051;-68
2021/10/02 02:12:43;;;;;;;17.13;8.10;;;;;;;10.61;100.00;101192.69;4943773;28;20384;-68
2021/10/02 02:15:12;;;;;;;19.98;8.20;;;;;;;10.56;100.00;101186.59;4947169;28;20102;-68
2021/10/02 02:17:46;;;;;;;16.77;8.85;;;;;;;10.54;100.00;101191.06;4947045;28;20484;-67
2021/10/02 02:20:19;;;;;;;18.17;8.85;;;;;;;10.46;100.00;101184.13;4950857;28;20410;-68
2021/10/02 02:22:47;;;;;;;17.67;8.00;;;;;;;10.43;100.00;101184.22;4944243;28;20600;-67
2021/10/02 02:25:15;;;;;;;19.95;8.68;;;;;;;10.35;100.00;101175.56;4949298;28;20090;-68
2021/10/02 02:27:43;;;;;;;16.08;9.23;;;;;;;10.34;100.00;101178.25;4945149;28;20402;-68
2021/10/02 02:30:12;;;;;;;17.48;8.50;;;;;;;10.27;100.00;101167.72;4947479;28;20137;-68
2021/10/02 02:32:44;;;;;;;14.85;9.05;;;;;;;10.22;100.00;101166.09;4945465;28;20085;-68
2021/10/02 02:35:13;;;;;;;18.73;8.65;;;;;;;10.19;100.00;101160.81;4946445;28;20055;-68
2021/10/02 02:37:41;;;;;;;15.18;7.97;;;;;;;10.16;100.00;101167.09;4946052;28;20047;-68
2021/10/02 02:40:10;;;;;;;16.20;7.65;;;;;;;10.15;100.00;101168.03;4945581;28;20042;-68
2021/10/02 02:42:38;;;;;;;15.75;8.43;;;;;;;10.12;100.00;101162.75;4947720;28;20149;-68
2021/10/02 02:45:08;;;;;;;19.90;9.07;;;;;;;10.12;100.00;101159.22;4947032;28;20129;-68
2021/10/02 02:47:41;;;;;;;15.68;8.30;;;;;;;10.15;100.00;101165.34;4945530;28;20756;-68
2021/10/02 02:50:20;;;;;;;21.13;9.47;;;;;;;10.26;100.00;101154.41;4946592;28;20808;-68
2021/10/02 02:52:55;;;;;;;20.02;10.27;;;;;;;10.29;100.00;101139.19;4943598;28;20577;-68
2021/10/02 02:55:26;;;;;;;30.20;11.80;;;;;;;10.34;100.00;101139.13;4948967;28;20055;-67
2021/10/02 02:57:56;;;;;;;21.13;10.45;;;;;;;10.36;100.00;101149.75;4945276;28;20082;-71
2021/10/02 03:00:25;;;;;;;20.95;11.30;;;;;;;10.43;100.00;101154.00;4945505;28;20487;-71
2021/10/02 03:02:55;;;;;;;27.20;11.77;;;;;;;10.53;100.00;101146.63;4946521;28;20054;-72
2021/10/02 03:05:27;;;;;;;20.30;11.02;;;;;;;10.41;100.00;101154.03;4945350;28;20047;-71
2021/10/02 03:07:59;;;;;;;23.23;11.77;;;;;;;10.49;100.00;101153.84;4949911;28;20480;-71
2021/10/02 03:10:29;;;;;;;22.35;11.75;;;;;;;10.52;100.00;101168.88;4945466;28;20055;-71
2021/10/02 03:13:01;;;;;;;22.30;10.52;;;;;;;10.51;100.00;101159.16;4946436;28;20046;-72
2021/10/02 03:15:31;;;;;;;21.73;11.63;;;;;;;10.44;100.00;101156.63;4948922;28;20548;-72
2021/10/02 03:17:59;;;;;;;20.88;11.30;;;;;;;10.48;100.00;101151.22;4945073;28;20055;-70
2021/10/02 03:20:29;;;;;;;25.50;10.80;;;;;;;10.46;100.00;101156.59;4947070;28;20078;-70
2021/10/02 03:22:58;;;;;;;22.85;11.35;;;;;;;10.44;100.00;101161.09;4943282;28;20082;-72
2021/10/02 03:25:27;;;;;;;18.05;9.70;;;;;;;10.32;100.00;101159.63;4949237;28;20626;-72
2021/10/02 03:27:57;;;;;;;18.33;9.40;;;;;;;10.28;100.00;101164.13;4944087;28;20083;-70
2021/10/02 03:30:26;;;;;;;21.17;10.73;;;;;;;10.22;100.00;101158.09;4947369;28;20767;-71
2021/10/02 03:32:54;;;;;;;21.45;10.90;;;;;;;10.37;100.00;101155.06;4945839;28;20138;-70
2021/10/02 03:35:22;;;;;;;22.42;10.15;;;;;;;10.25;100.00;101156.22;4945516;28;20142;-70
2021/10/02 03:37:52;;;;;;;19.67;9.50;;;;;;;10.14;100.00;101152.94;4950461;28;20060;-70
2021/10/02 03:40:22;;;;;;;19.88;9.48;;;;;;;10.14;100.00;101157.41;4949283;28;20062;-70
2021/10/02 03:42:51;;;;;;;19.13;9.18;;;;;;;10.07;100.00;101156.66;4948067;28;20050;-70
2021/10/02 03:45:21;;;;;;;17.17;9.20;;;;;;;10.04;100.00;101165.59;4947790;28;20105;-71
2021/10/02 03:47:49;;;;;;;17.80;8.90;;;;;;;10.05;100.00;101162.03;4947667;28;20050;-70
2021/10/02 03:50:18;;;;;;;17.60;9.65;;;;;;;10.16;100.00;101155.56;4950203;28;20054;-70
2021/10/02 03:52:46;;;;;;;23.65;10.32;;;;;;;10.33;100.00;101158.69;4941779;28;20051;-70
2021/10/02 03:55:17;;;;;;;18.17;9.63;;;;;;;10.20;100.00;101155.44;4945587;28;21083;-70
2021/10/02 03:57:44;;;;;;;21.33;9.50;;;;;;;10.14;100.00;101152.94;4947728;28;20083;-70
2021/10/02 04:00:14;;;;;;;17.33;8.50;;;;;;;10.15;100.00;101145.78;4946349;28;20494;-70
2021/10/02 04:02:45;;;;;;;19.55;9.98;;;;;;;10.20;100.00;101144.78;4946942;28;20038;-70
2021/10/02 04:05:14;;;;;;;21.65;9.75;;;;;;;10.18;100.00;101143.06;4944718;28;20101;-70
2021/10/02 04:07:41;;;;;;;23.42;10.73;;;;;;;10.25;100.00;101144.69;4946497;28;20066;-70
2021/10/02 04:10:10;;;;;;;18.13;9.65;;;;;;;10.19;100.00;101153.69;4945401;28;20059;-70
2021/10/02 04:12:39;;;;;;;24.85;10.40;;;;;;;10.13;100.00;101151.19;4941149;28;20081;-70
2021/10/02 04:15:08;;;;;;;21.88;10.48;;;;;;;10.22;100.00;101150.09;4943986;28;20051;-70
2021/10/02 04:17:36;;;;;;;20.38;9.07;;;;;;;10.10;100.00;101144.13;4945858;28;20161;-70
2021/10/02 04:20:07;;;;;;;24.88;11.38;;;;;;;10.19;100.00;101139.50;4943446;28;20087;-70
2021/10/02 04:22:35;;;;;;;25.33;11.18;;;;;;;10.18;100.00;101135.06;4947883;28;20046;-70
2021/10/02 04:25:04;;;;;;;39.75;12.02;;;;;;;10.10;100.00;101137.94;4944358;28;20057;-70
2021/10/02 04:27:32;;;;;;;22.65;12.30;;;;;;;10.14;100.00;101126.25;4945224;28;20121;-69
2021/10/02 04:30:01;;;;;;;24.00;11.27;;;;;;;10.10;100.00;101125.47;4945296;28;20123;-71
2021/10/02 04:32:29;;;;;;;25.77;10.93;;;;;;;10.15;100.00;101140.47;4940739;28;20129;-70
2021/10/02 04:34:57;;;;;;;22.75;10.68;;;;;;;10.02;100.00;101147.91;4943152;28;20105;-71
2021/10/02 04:37:25;;;;;;;18.15;9.57;;;;;;;10.00;100.00;101137.28;4945659;28;20093;-70
2021/10/02 04:39:53;;;;;;;31.17;13.13;;;;;;;10.10;100.00;101136.13;4942528;28;20142;-67
2021/10/02 04:42:20;;;;;;;23.30;11.35;;;;;;;10.01;100.00;101125.72;4945399;28;20643;-66
2021/10/02 04:44:48;;;;;;;21.35;12.10;;;;;;;10.12;100.00;101116.56;4944256;28;20495;-66
2021/10/02 04:47:17;;;;;;;29.52;13.05;;;;;;;10.06;100.00;101126.47;4942940;28;20494;-66
2021/10/02 04:49:46;;;;;;;24.42;12.73;;;;;;;10.00;100.00;101123.94;4944168;28;20057;-66
2021/10/02 04:52:14;;;;;;;26.73;13.63;;;;;;;10.01;100.00;101119.47;4937875;28;20567;-66
2021/10/02 04:54:42;;;;;;;28.75;12.80;;;;;;;9.99;100.00;101137.31;4944247;28;20133;-66
2021/10/02 04:57:10;;;;;;;26.77;13.60;;;;;;;10.04;100.00;101130.94;4943979;28;20082;-66
2021/10/02 04:59:38;;;;;;;35.25;16.48;;;;;;;10.17;100.00;101130.66;4944159;28;20117;-66
2021/10/02 05:02:06;;;;;;;36.80;17.83;;;;;;;10.18;100.00;101129.72;4947372;28;20125;-66
2021/10/02 05:04:36;;;;;;;37.80;18.50;;;;;;;10.24;100.00;101129.56;4947312;28;20183;-66
2021/10/02 05:07:04;;;;;;;38.15;17.95;;;;;;;10.17;100.00;101128.84;4949006;28;20251;-66
2021/10/02 05:09:57;;;;;;;35.92;18.65;;;;;;;10.26;100.00;101131.28;4944467;28;20521;-66
2021/10/02 05:12:25;;;;;;;36.05;17.85;;;;;;;10.22;100.00;101142.09;4938414;28;20054;-66
2021/10/02 05:14:53;;;;;;;33.33;17.45;;;;;;;10.21;100.00;101138.50;4946608;28;20084;-66
2021/10/02 05:17:20;;;;;;;35.15;16.30;;;;;;;10.18;100.00;101127.06;4947722;28;20108;-66
2021/10/02 05:19:51;;;;;;;36.88;18.65;;;;;;;10.34;100.00;101133.78;4947839;28;20061;-66
2021/10/02 05:22:19;;;;;;;33.60;16.83;;;;;;;10.37;100.00;101138.16;4948539;28;20833;-66
2021/10/02 05:24:47;;;;;;;37.53;17.52;;;;;;;10.35;100.00;101130.22;4946665;28;20137;-68
2021/10/02 05:27:15;;;;;;;35.83;17.23;;;;;;;10.33;100.00;101134.69;4948660;28;20576;-67
2021/10/02 05:29:46;;;;;;;35.72;16.67;;;;;;;10.27;100.00;101141.03;4949262;28;20086;-67
2021/10/02 05:32:14;;;;;;;31.70;14.52;;;;;;;10.28;100.00;101133.91;4950074;28;20049;-66
2021/10/02 05:34:42;;;;;;;33.95;15.52;;;;;;;10.31;100.00;101127.63;4950419;28;20133;-66
2021/10/02 05:37:12;;;;;;;28.15;14.38;;;;;;;10.33;100.00;101121.34;4946797;28;21619;-66
2021/10/02 05:39:39;;;;;;;33.75;13.98;;;;;;;10.30;100.00;101126.75;4945995;28;20047;-71
2021/10/02 05:42:08;;;;;;;29.52;14.38;;;;;;;10.34;100.00;101116.91;4947903;28;20052;-70
2021/10/02 05:44:39;;;;;;;28.92;14.77;;;;;;;10.31;100.00;101122.28;4946977;28;20114;-70
2021/10/02 05:47:07;;;;;;;26.95;13.27;;;;;;;10.29;100.00;101125.00;4944304;28;20130;-70
2021/10/02 05:49:35;;;;;;;28.42;13.75;;;;;;;10.29;100.00;101125.00;4951869;28;20051;-70
2021/10/02 05:52:04;;;;;;;32.85;13.77;;;;;;;10.20;100.00;101122.56;4945763;28;24110;-70
2021/10/02 05:54:35;;;;;;;29.88;14.25;;;;;;;10.19;100.00;101124.34;4948714;28;20133;-70
2021/10/02 05:57:03;;;;;;;26.08;12.98;;;;;;;10.16;100.00;101137.75;4945827;28;20154;-71
2021/10/02 05:59:32;;;;;;;28.90;12.40;;;;;;;10.20;100.00;101136.78;4948838;28;20080;-70
2021/10/02 06:01:59;;;;;;;23.27;12.32;;;;;;;10.21;100.00;101134.97;4946825;28;20173;-70
2021/10/02 06:04:27;;;;;;;26.15;12.20;;;;;;;10.20;100.00;101127.88;4948927;28;20051;-71
2021/10/02 06:06:55;;;;;;;29.50;13.77;;;;;;;10.22;100.00;101134.09;4943828;28;20248;-67
2021/10/02 06:09:23;;;;;;;28.15;13.30;;;;;;;10.25;100.00;101134.88;4952047;28;20051;-67
2021/10/02 06:11:52;;;;;;;25.60;13.45;;;;;;;10.25;100.00;101139.34;4942836;28;20382;-67
2021/10/02 06:14:20;;;;;;;23.55;13.60;;;;;;;10.26;100.00;101133.06;4946474;28;20081;-67
2021/10/02 06:16:48;;;;;;;24.98;13.68;;;;;;;10.25;100.00;101140.22;4942457;28;20152;-67
2021/10/02 06:19:17;;;;;;;23.00;12.98;;;;;;;10.23;100.00;101131.38;4949896;28;20054;-67
2021/10/02 06:21:45;;;;;;;29.80;14.77;;;;;;;10.24;100.00;101125.09;4948874;28;21296;-67
2021/10/02 06:24:14;;;;;;;29.67;13.25;;;;;;;10.26;100.00;101130.41;4948907;28;20059;-67
2021/10/02 06:26:44;;;;;;;26.77;13.05;;;;;;;10.28;100.00;101125.91;4947241;28;20043;-68
2021/10/02 06:29:14;;;;;;;29.73;13.20;;;;;;;10.28;100.00;101131.22;4946688;28;20099;-68
2021/10/02 06:31:41;;;;;;;24.98;12.05;;;;;;;10.30;100.00;101126.75;4947182;28;20503;-66
2021/10/02 06:34:10;;;;;;;25.88;11.93;;;;;;;10.31;100.00;101135.63;4949930;28;20067;-66
2021/10/02 06:36:37;;;;;;;30.92;12.98;;;;;;;10.33;100.00;101126.69;4948156;28;20524;-66
2021/10/02 06:39:06;;;;;;;30.08;12.55;;;;;;;10.34;100.00;101122.25;4944783;28;20403;-67
2021/10/02 06:41:34;;;;;;;24.58;12.40;;;;;;;10.38;100.00;101122.09;4966156;28;20058;-66
2021/10/02 06:44:01;;;;;;;20.10;12.05;;;;;;;10.45;100.00;101120.16;4960846;28;20263;-66
2021/10/02 06:46:31;;;;;;;25.95;12.88;;;;;;;10.47;100.00;101120.97;4966724;28;20129;-66
2021/10/02 06:48:59;;;;;;;26.88;13.60;;;;;;;10.52;100.00;101112.84;4970834;28;20050;-66
2021/10/02 06:51:27;;;;;;;26.70;12.15;;;;;;;10.52;100.00;101116.44;4961551;28;20542;-66
2021/10/02 06:53:55;;;;;;;24.20;13.43;;;;;;;10.56;100.00;101102.06;4959347;28;20649;-66
2021/10/02 06:56:23;;;;;;;24.83;13.43;;;;;;;10.59;100.00;101103.75;4948687;28;20073;-66
2021/10/02 06:58:50;;;;;;;25.98;11.32;;;;;;;10.59;100.00;101102.00;4948289;28;20247;-66
2021/10/02 07:01:18;;;;;;;23.17;11.85;;;;;;;10.60;100.00;101092.19;4949988;28;20058;-66
2021/10/02 07:03:48;;;;;;;24.13;11.88;;;;;;;10.59;100.00;101096.66;4953179;28;20042;-68
2021/10/02 07:06:15;;;;;;;22.60;11.75;;;;;;;10.62;100.00;101103.69;4947637;28;20055;-68
2021/10/02 07:08:43;;;;;;;25.17;11.25;;;;;;;10.63;100.00;101105.44;4943278;28;20695;-68
2021/10/02 07:11:13;;;;;;;21.50;10.20;;;;;;;10.67;100.00;101096.41;4948516;28;20050;-67
2021/10/02 07:13:41;;;;;;;31.52;11.38;;;;;;;10.74;100.00;101094.44;4919887;28;20057;-67
2021/10/02 07:16:09;;;;;;;21.33;10.13;;;;;;;10.75;100.00;101096.22;4949509;28;20051;-67
2021/10/02 07:18:36;;;;;;;20.92;10.60;;;;;;;10.77;100.00;101089.03;4949446;28;20065;-67
2021/10/02 07:21:06;;;;;;;23.48;10.82;;;;;;;10.78;100.00;101088.13;4949014;28;20291;-67
2021/10/02 07:23:36;;;;;;;23.98;9.77;;;;;;;10.84;100.00;101080.81;4942341;28;20058;-67
2021/10/02 07:26:07;;;;;;;17.77;9.25;;;;;;;10.87;100.00;101074.50;4946536;28;20765;-68
2021/10/02 07:28:36;;;;;;;19.95;9.98;;;;;;;10.87;100.00;101079.84;4949015;28;20081;-67
2021/10/02 07:31:04;;;;;;;22.13;9.88;;;;;;;10.95;100.00;101082.28;4947944;28;20536;-66
2021/10/02 07:33:32;;;;;;;18.20;9.25;;;;;;;10.94;100.00;101081.41;4950173;28;20069;-66
2021/10/02 07:36:00;;;;;;;17.73;9.73;;;;;;;10.96;100.00;101078.69;4950206;28;20062;-66
2021/10/02 07:38:29;;;;;;;20.35;8.27;;;;;;;10.99;100.00;101073.25;4949720;28;20557;-67
2021/10/02 07:40:59;;;;;;;17.70;9.57;;;;;;;11.03;100.00;101075.78;4947670;28;20099;-68
2021/10/02 07:43:28;;;;;;;23.63;8.73;;;;;;;11.07;100.00;101073.00;4947748;28;20180;-66
2021/10/02 07:45:57;;;;;;;18.90;7.82;;;;;;;11.07;100.00;101075.69;4942510;28;20270;-68
2021/10/02 07:48:25;;;;;;;18.10;8.40;;;;;;;11.12;100.00;101066.63;4949105;28;20122;-68
2021/10/02 07:50:54;;;;;;;15.27;8.10;;;;;;;11.14;100.00;101087.94;4948842;28;20335;-68
2021/10/02 07:53:25;;;;;;;16.65;8.73;;;;;;;11.21;100.00;101090.38;4943038;28;21459;-68
2021/10/02 07:55:54;;;;;;;18.50;7.43;;;;;;;11.26;100.00;101089.38;4945996;28;20098;-68
2021/10/02 07:58:22;;;;;;;15.88;8.27;;;;;;;11.32;100.00;101082.03;4947134;28;20442;-68
2021/10/02 08:00:54;;;;;;;17.65;7.15;;;;;;;11.43;100.00;101078.16;4946889;28;20065;-68
2021/10/02 08:03:22;;;;;;;17.95;7.68;;;;;;;11.47;100.00;101080.66;4951564;28;20097;-68
2021/10/02 08:06:15;;;;;;;14.13;7.45;;;;;;;11.57;100.00;101078.56;4946757;28;20062;-68
2021/10/02 08:08:44;;;;;;;14.30;6.38;;;;;;;11.61;100.00;101076.66;4951662;28;20456;-71
2021/10/02 08:11:13;;;;;;;16.73;7.28;;;;;;;11.74;100.00;101064.66;4946984;28;20334;-71
2021/10/02 08:13:41;;;;;;;14.50;6.78;;;;;;;11.88;99.48;101057.03;4944053;28;20807;-72
2021/10/02 08:16:12;;;;;;;16.23;6.07;;;;;;;11.95;99.31;101052.38;4946889;28;20202;-70
2021/10/02 08:18:40;;;;;;;14.85;7.03;;;;;;;11.98;97.18;101046.06;4949191;28;20047;-69
2021/10/02 08:21:09;;;;;;;15.05;6.30;;;;;;;12.05;98.63;101045.78;4948137;28;20082;-70
2021/10/02 08:24:03;;;;;;;15.30;7.15;;;;;;;12.15;96.55;101049.03;4948469;28;20058;-70
2021/10/02 08:26:36;;;;;;;17.92;7.13;;;;;;;12.27;97.28;101056.59;4949719;28;20528;-71
2021/10/02 08:29:05;;;;;;;13.55;6.72;;;;;;;12.22;94.56;101050.53;4947051;28;20047;-71
2021/10/02 08:31:34;;;;;;;14.65;6.53;;;;;;;12.33;96.46;101042.16;4944671;28;20144;-69
2021/10/02 08:34:22;;;;;;;18.25;6.78;;;;;;;12.40;92.72;101032.97;4949224;28;20154;-69
2021/10/02 08:36:50;;;;;;;16.52;7.45;;;;;;;12.49;91.23;101027.25;4949266;28;20085;-68
2021/10/02 08:39:18;;;;;;;15.18;7.13;;;;;;;12.72;93.31;101022.88;4949619;28;20174;-68
2021/10/02 08:41:50;;;;;;;16.08;7.45;;;;;;;12.79;91.71;101031.53;4948093;28;20463;-69
2021/10/02 08:44:21;;;;;;;23.25;7.93;;;;;;;12.79;93.18;101037.75;4946371;28;20061;-66
2021/10/02 08:46:50;;;;;;;16.75;7.18;;;;;;;13.10;91.43;101025.84;4947236;28;20050;-66
2021/10/02 08:49:38;;;;;;;18.23;6.72;;;;;;;12.89;87.54;101020.41;4945889;28;20285;-66
2021/10/02 08:52:25;;;;;;;17.80;6.13;;;;;;;12.93;89.38;101015.81;4945911;28;20134;-68
2021/10/02 08:54:55;;;;;;;16.55;6.45;;;;;;;12.95;90.22;101005.91;4949214;28;20179;-67
2021/10/02 08:57:25;;;;;;;10.50;4.80;;;;;;;12.95;88.87;101007.72;4948501;28;20145;-67
2021/10/02 09:00:21;;;;;;;10.48;5.32;;;;;;;12.96;87.84;101004.13;4948158;28;20279;-68
2021/10/02 09:02:50;;;;;;;21.67;6.00;;;;;;;13.23;85.69;101002.13;4948579;28;20053;-68
2021/10/02 09:05:20;;;;;;;12.27;5.65;;;;;;;13.54;86.65;100993.72;4946567;28;20134;-67
2021/10/02 09:07:49;;;;;;;14.02;5.78;;;;;;;13.47;87.59;100977.94;4948715;28;20154;-66
2021/10/02 09:10:18;;;;;;;15.73;6.25;;;;;;;13.43;86.02;100977.22;4947211;28;20046;-67
2021/10/02 09:12:49;;;;;;;14.85;6.97;;;;;;;13.36;87.62;100979.28;4945313;28;20336;-72
2021/10/02 09:15:18;;;;;;;16.63;8.13;;;;;;;13.41;88.32;100976.41;4949036;28;20047;-69
2021/10/02 09:18:11;;;;;;;13.13;6.95;;;;;;;13.50;88.73;100975.16;4946965;28;20116;-67
2021/10/02 09:20:39;;;;;;;16.60;7.55;;;;;;;13.45;90.38;100972.69;4950778;28;20065;-67
2021/10/02 09:23:08;;;;;;;20.00;8.63;;;;;;;13.41;90.10;100966.53;4947061;28;20062;-68
2021/10/02 09:25:45;;;;;;;17.90;9.30;;;;;;;13.17;90.11;100976.44;4945552;28;20078;-65
2021/10/02 09:28:17;;;;;;;18.35;10.38;;;;;;;13.23;90.37;100981.56;4945000;28;20051;-66
2021/10/02 09:31:09;;;;;;;19.75;10.35;;;;;;;13.42;90.86;100968.31;4944271;28;20454;-67
2021/10/02 09:33:43;;;;;;;22.65;10.93;;;;;;;13.58;88.79;100965.84;4947493;28;20039;-66
2021/10/02 09:36:19;;;;;;;21.20;10.55;;;;;;;13.71;88.75;100950.09;4945555;28;20059;-67
2021/10/02 09:39:11;;;;;;;20.40;10.48;;;;;;;13.97;88.53;100951.63;4946864;28;20723;-67
2021/10/02 09:41:47;;;;;;;21.60;10.50;;;;;;;13.76;89.88;100949.91;4948202;28;20055;-68
2021/10/02 09:44:23;;;;;;;28.90;12.85;;;;;;;13.74;90.31;100944.63;4945073;28;20055;-67
2021/10/02 09:46:53;;;;;;;21.65;11.40;;;;;;;13.79;91.23;100949.75;4951409;28;20058;-68
2021/10/02 09:49:21;;;;;;;25.25;12.85;;;;;;;13.51;91.34;100950.09;4946487;28;20137;-67
2021/10/02 09:51:52;;;;;;;29.08;14.02;;;;;;;13.73;92.53;100952.72;4948661;28;20047;-68
2021/10/02 09:54:36;;;;;;;24.90;14.70;;;;;;;13.66;92.48;100945.91;4941136;28;20346;-68
2021/10/02 09:57:12;;;;;;;28.90;13.98;;;;;;;13.77;92.22;100943.59;4946475;28;20166;-68
2021/10/02 09:59:42;;;;;;;31.83;15.20;;;;;;;13.73;92.27;100936.63;4948962;28;20109;-67
2021/10/02 10:02:15;;;;;;;34.90;15.65;;;;;;;13.70;91.86;100937.63;4949310;28;20242;-68
2021/10/02 10:04:51;;;;;;;30.38;15.77;;;;;;;13.82;91.87;100934.44;4953256;28;20058;-68
2021/10/02 10:07:20;;;;;;;31.13;14.98;;;;;;;13.86;91.81;100936.94;4950641;28;20154;-68
2021/10/02 10:10:00;;;;;;;28.63;15.60;;;;;;;13.79;92.56;100923.84;4950290;28;21502;-68
2021/10/02 10:12:29;;;;;;;32.28;16.40;;;;;;;13.92;92.78;100920.59;4943014;28;20053;-68
2021/10/02 10:14:58;;;;;;;29.25;16.63;;;;;;;13.93;92.59;100908.94;4951073;28;20089;-68
2021/10/02 10:17:32;;;;;;;31.33;14.38;;;;;;;14.01;93.34;100910.34;4948821;28;20151;-68
2021/10/02 10:20:05;;;;;;;25.23;14.35;;;;;;;13.88;93.41;100906.47;4949039;28;20046;-68
2021/10/02 10:22:34;;;;;;;25.48;15.15;;;;;;;13.89;94.01;100889.41;4948452;28;20050;-68
2021/10/02 10:25:07;;;;;;;28.40;14.98;;;;;;;14.09;93.49;100879.59;4947049;28;20051;-69
2021/10/02 10:27:39;;;;;;;27.63;14.20;;;;;;;14.13;94.06;100881.19;4949401;28;20055;-69
2021/10/02 10:30:14;;;;;;;23.50;13.52;;;;;;;14.11;93.87;100881.25;4949748;28;20090;-69
2021/10/02 10:32:58;;;;;;;20.50;11.80;;;;;;;14.07;92.97;100882.34;4945908;28;20827;-69
2021/10/02 10:35:31;;;;;;;28.17;13.57;;;;;;;14.10;93.56;100884.91;4947601;28;20050;-68
2021/10/02 10:37:59;;;;;;;23.27;12.43;;;;;;;13.97;91.76;100879.22;4945828;28;20051;-67
2021/10/02 10:40:28;;;;;;;22.92;12.07;;;;;;;14.00;92.30;100875.53;4949120;28;20042;-67
2021/10/02 10:42:56;;;;;;;22.60;11.95;;;;;;;14.05;91.98;100875.31;4946917;28;20570;-67
2021/10/02 10:45:25;;;;;;;20.58;12.43;;;;;;;14.09;91.86;100867.03;4951044;28;20185;-66
2021/10/02 10:47:56;;;;;;;18.17;12.15;;;;;;;14.22;91.92;100859.31;4946905;28;20058;-66
2021/10/02 10:50:24;;;;;;;22.17;12.45;;;;;;;14.16;92.13;100849.72;4951127;28;20080;-67
2021/10/02 10:53:00;;;;;;;22.67;13.10;;;;;;;14.08;91.96;100851.91;4940985;28;20683;-67
2021/10/02 10:55:28;;;;;;;20.67;13.07;;;;;;;14.13;92.39;100839.16;4945658;28;20049;-67
2021/10/02 10:57:58;;;;;;;27.42;14.43;;;;;;;14.05;91.48;100838.63;4946803;28;20383;-67
2021/10/02 11:00:43;;;;;;;23.25;13.57;;;;;;;14.12;92.63;100820.44;4948518;28;20229;-67
2021/10/02 11:03:11;;;;;;;20.60;13.48;;;;;;;14.04;91.93;100817.22;4945332;28;20109;-67
2021/10/02 11:06:00;;;;;;;23.10;14.27;;;;;;;14.08;91.85;100817.03;4943414;28;20274;-67
2021/10/02 11:09:00;;;;;;;21.40;13.98;;;;;;;14.17;91.79;100821.94;4945964;28;20126;-67
2021/10/02 11:12:00;;;;;;;21.23;12.98;;;;;;;14.30;91.85;100813.31;4942287;28;20182;-67
2021/10/02 11:14:59;;;;;;;23.33;14.02;;;;;;;14.47;91.69;100813.38;4950009;28;20069;-67
2021/10/02 11:17:44;;;;;;;26.88;13.45;;;;;;;14.81;90.53;100802.78;4905613;28;20050;-67
2021/10/02 11:20:45;;;;;;;24.00;12.93;;;;;;;14.74;89.78;100802.22;4946196;28;20138;-67
2021/10/02 11:24:01;;;;;;;19.38;12.25;;;;;;;14.73;90.18;100804.06;4949957;28;20069;-67
2021/10/02 11:26:37;;;;;;;22.40;13.32;;;;;;;14.55;90.48;100795.06;4948200;28;20058;-67
2021/10/02 11:29:20;;;;;;;19.45;11.80;;;;;;;14.71;90.21;100786.25;4954012;28;20055;-67
2021/10/02 11:31:49;;;;;;;18.47;10.47;;;;;;;14.89;87.78;100782.66;4946639;28;20082;-67
2021/10/02 11:34:21;;;;;;;18.75;11.02;;;;;;;14.80;88.71;100775.06;4955171;28;20443;-67
2021/10/02 11:36:55;;;;;;;19.48;10.50;;;;;;;14.96;88.99;100772.47;4946688;28;20055;-67
2021/10/02 11:39:31;;;;;;;20.13;11.15;;;;;;;14.80;88.50;100761.66;4948109;28;20129;-67
2021/10/02 11:42:01;;;;;;;17.10;10.40;;;;;;;14.77;88.49;100750.19;4948037;28;20140;-67
2021/10/02 11:44:45;;;;;;;17.05;10.10;;;;;;;14.95;87.80;100741.19;4947694;28;20586;-69
2021/10/02 11:47:34;;;;;;;20.50;10.05;;;;;;;15.25;85.27;100727.94;4949421;28;20494;-69
2021/10/02 11:50:30;;;;;;;15.68;8.38;;;;;;;15.31;85.02;100724.94;4947855;28;20138;-69
2021/10/02 11:53:18;;;;;;;18.95;9.15;;;;;;;15.53;84.25;100717.50;4944400;28;20136;-67
2021/10/02 11:55:48;;;;;;;15.23;9.35;;;;;;;15.56;83.75;100711.97;4950987;28;20050;-67
2021/10/02 11:58:16;;;;;;;12.40;8.68;;;;;;;15.59;83.66;100695.69;4947905;28;20656;-67
2021/10/02 12:00:52;;;;;;;14.60;9.00;;;;;;;15.63;83.29;100690.06;4947191;28;20676;-68
2021/10/02 12:03:24;;;;;;;14.23;8.90;;;;;;;15.58;85.41;100688.53;4948707;28;20054;-68
2021/10/02 12:05:56;;;;;;;16.23;8.45;;;;;;;15.39;85.77;100689.59;4949327;28;20487;-68
2021/10/02 12:08:25;;;;;;;12.32;8.00;;;;;;;15.36;85.93;100683.47;4950070;28;20098;-68
2021/10/02 12:10:55;;;;;;;11.85;7.95;;;;;;;15.16;87.10;100682.75;4946275;28;20494;-68
2021/10/02 12:13:25;;;;;;;12.63;7.93;;;;;;;14.83;88.72;100685.41;4925029;28;20061;-68
2021/10/02 12:15:59;;;;;;;13.07;7.50;;;;;;;14.77;89.08;100675.84;4928587;28;20175;-69
2021/10/02 12:18:46;;;;;;;12.75;7.95;;;;;;;14.89;90.23;100669.81;4929100;28;20074;-70